Time;durP1;ratioP1;P1;durP2;ratioP2;P2;SDS_P1;SDS_P2;PMS_P1;PMS_P2;Temp;Humidity;BMP_temperature;BMP_pressure;BME280_temperature;BME280_humidity;BME280_pressure;Samples;Min_cycle;Max_cycle;Signal;HPM_P1;HPM_P2
2021/11/16 00:00:09;;;;;;;86.85;44.22;;;;;;;5.95;85.76;101589.63;4961949;28;20515;-76
2021/11/16 00:02:36;;;;;;;88.95;45.33;;;;;;;5.97;85.56;101588.81;4954833;28;20051;-76
2021/11/16 00:05:03;;;;;;;92.03;45.85;;;;;;;5.96;85.43;101581.81;4954734;28;20035;-76
2021/11/16 00:07:28;;;;;;;92.65;45.67;;;;;;;5.95;85.18;101582.66;4954630;28;20047;-76
2021/11/16 00:09:54;;;;;;;93.70;47.30;;;;;;;5.97;85.51;101586.19;4954660;28;20398;-76
2021/11/16 00:12:19;;;;;;;90.00;44.80;;;;;;;6.02;85.62;101589.84;4961419;28;20043;-75
2021/11/16 00:14:45;;;;;;;87.93;43.53;;;;;;;6.04;85.02;101585.53;4954401;29;20494;-76
2021/11/16 00:17:11;;;;;;;97.90;44.10;;;;;;;6.03;85.47;101583.78;4954621;28;20054;-76
2021/11/16 00:19:37;;;;;;;87.53;43.50;;;;;;;6.11;85.41;101587.50;4961414;28;20070;-76
2021/11/16 00:22:04;;;;;;;81.93;43.30;;;;;;;6.17;84.83;101575.41;4953356;28;20035;-75
2021/11/16 00:24:37;;;;;;;89.88;44.85;;;;;;;6.18;84.83;101582.44;4954960;28;20053;-76
2021/11/16 00:27:06;;;;;;;92.72;42.95;;;;;;;6.22;84.54;101579.06;4956962;28;20042;-76
2021/11/16 00:29:33;;;;;;;95.03;46.38;;;;;;;6.24;84.66;101577.38;4952395;28;20027;-75
2021/11/16 00:31:59;;;;;;;92.03;45.58;;;;;;;6.24;84.44;101570.41;4961051;28;20027;-75
2021/11/16 00:34:24;;;;;;;89.60;45.05;;;;;;;6.21;84.29;101572.94;4957404;28;20066;-75
2021/11/16 00:36:50;;;;;;;90.00;43.95;;;;;;;6.13;84.59;101572.72;4953547;28;20046;-75
2021/11/16 00:39:15;;;;;;;87.15;43.50;;;;;;;6.11;84.46;101581.38;4954051;28;20039;-75
2021/11/16 00:41:42;;;;;;;92.75;45.63;;;;;;;6.12;84.33;101581.41;4954065;28;20070;-76
2021/11/16 00:44:08;;;;;;;88.72;46.63;;;;;;;6.12;84.07;101584.03;4952558;29;20031;-76
2021/11/16 00:46:33;;;;;;;79.95;43.15;;;;;;;6.12;83.83;101589.28;4954049;28;20375;-76
2021/11/16 00:48:58;;;;;;;86.88;44.28;;;;;;;6.05;84.14;101579.47;4959939;28;20490;-75
2021/11/16 00:51:25;;;;;;;97.35;45.85;;;;;;;6.04;84.45;101580.31;4953511;28;20542;-76
2021/11/16 00:53:50;;;;;;;88.32;45.05;;;;;;;6.04;84.14;101579.41;4952801;28;20066;-75
2021/11/16 00:56:15;;;;;;;84.53;43.80;;;;;;;6.02;84.51;101578.47;4953079;28;20186;-76
2021/11/16 00:58:41;;;;;;;88.70;43.70;;;;;;;6.05;84.59;101578.56;4951779;28;20043;-76
2021/11/16 01:01:06;;;;;;;92.78;45.50;;;;;;;6.10;83.84;101576.97;4953261;28;20035;-76
2021/11/16 01:03:32;;;;;;;97.45;46.67;;;;;;;6.12;83.89;101589.28;4952826;28;20031;-76
2021/11/16 01:05:58;;;;;;;90.22;42.58;;;;;;;6.11;84.11;101576.13;4953076;28;20035;-76
2021/11/16 01:08:24;;;;;;;90.15;44.33;;;;;;;6.05;84.21;101571.63;4952901;28;20039;-76
2021/11/16 01:10:50;;;;;;;92.97;45.58;;;;;;;6.09;84.37;101583.94;4952829;28;20043;-75
2021/11/16 01:13:17;;;;;;;91.75;45.42;;;;;;;6.14;84.48;101571.88;4951332;29;20035;-75
2021/11/16 01:15:44;;;;;;;85.20;43.42;;;;;;;6.22;84.32;101572.09;4952841;28;20041;-75
2021/11/16 01:18:10;;;;;;;83.90;41.65;;;;;;;6.24;84.08;101574.75;4951735;29;20031;-75
2021/11/16 01:20:36;;;;;;;88.65;44.45;;;;;;;6.23;84.30;101572.97;4952703;28;20050;-75
2021/11/16 01:23:04;;;;;;;91.50;45.55;;;;;;;6.24;84.39;101583.50;4952467;28;20043;-75
2021/11/16 01:25:33;;;;;;;91.30;46.78;;;;;;;6.27;83.92;101583.59;4952670;28;20042;-75
2021/11/16 01:28:06;;;;;;;84.32;41.58;;;;;;;6.37;84.34;101579.50;4952715;28;20600;-75
2021/11/16 01:30:32;;;;;;;80.72;39.95;;;;;;;6.42;83.75;101575.28;4951089;28;20031;-75
2021/11/16 01:33:10;;;;;;;81.35;40.85;;;;;;;6.44;83.67;101575.28;4954221;28;20552;-75
2021/11/16 01:35:37;;;;;;;79.35;41.92;;;;;;;6.48;83.35;101577.16;4952209;29;20075;-75
2021/11/16 01:38:08;;;;;;;89.20;42.30;;;;;;;6.54;83.39;101572.06;4952100;28;20081;-75
2021/11/16 01:40:34;;;;;;;80.18;40.40;;;;;;;6.57;83.52;101578.28;4952634;28;20035;-75
2021/11/16 01:43:02;;;;;;;76.80;40.88;;;;;;;6.62;83.07;101580.16;4933956;29;20039;-75
2021/11/16 01:45:28;;;;;;;83.28;41.35;;;;;;;6.58;83.69;101577.47;4952496;28;20039;-75
2021/11/16 01:47:54;;;;;;;81.20;40.42;;;;;;;6.62;83.76;101581.03;4952383;28;20517;-75
2021/11/16 01:50:22;;;;;;;73.95;38.28;;;;;;;6.69;83.36;101587.34;4952456;28;20066;-76
2021/11/16 01:52:48;;;;;;;87.22;41.92;;;;;;;6.66;82.63;101580.28;4925902;28;995268;-76
2021/11/16 01:55:15;;;;;;;82.38;43.45;;;;;;;6.70;83.25;101576.00;4953020;28;20134;-75
2021/11/16 01:57:40;;;;;;;81.88;40.53;;;;;;;6.74;82.95;101570.88;4953207;28;20418;-76
2021/11/16 02:00:10;;;;;;;90.25;44.63;;;;;;;6.73;82.51;101573.44;4953093;28;20035;-75
2021/11/16 02:02:35;;;;;;;80.10;41.35;;;;;;;6.73;83.08;101562.94;4952762;28;20047;-76
2021/11/16 02:05:01;;;;;;;86.45;42.55;;;;;;;6.75;82.62;101563.88;4953088;28;20047;-76
2021/11/16 02:07:26;;;;;;;77.70;42.00;;;;;;;6.73;82.15;101560.31;4953089;28;20051;-76
2021/11/16 02:09:51;;;;;;;79.38;41.92;;;;;;;6.70;82.70;101552.38;4953019;28;20482;-76
2021/11/16 02:12:17;;;;;;;81.75;43.10;;;;;;;6.72;82.76;101545.44;4951613;29;20054;-76
2021/11/16 02:14:42;;;;;;;81.47;42.53;;;;;;;6.70;82.58;101547.13;4951515;29;20043;-76
2021/11/16 02:17:07;;;;;;;84.22;43.28;;;;;;;6.73;82.76;101539.34;4952943;28;20118;-76
2021/11/16 02:19:33;;;;;;;79.78;40.63;;;;;;;6.70;82.12;101542.78;4952893;28;20114;-75
2021/11/16 02:21:58;;;;;;;80.30;40.63;;;;;;;6.70;82.31;101536.66;4952261;28;20082;-75
2021/11/16 02:24:24;;;;;;;81.78;40.78;;;;;;;6.69;82.59;101535.75;4952035;29;20043;-75
2021/11/16 02:26:49;;;;;;;76.75;40.15;;;;;;;6.72;82.27;101540.19;4951746;29;20182;-75
2021/11/16 02:29:16;;;;;;;81.75;40.97;;;;;;;6.75;82.38;101535.91;4952865;28;20082;-76
2021/11/16 02:31:43;;;;;;;73.78;39.63;;;;;;;6.78;82.31;101529.84;4951393;29;20410;-76
2021/11/16 02:34:10;;;;;;;80.97;41.53;;;;;;;6.78;81.91;101535.09;4951290;28;20129;-76
2021/11/16 02:36:36;;;;;;;81.15;40.92;;;;;;;6.77;81.81;101534.22;4951533;29;20067;-76
2021/11/16 02:39:04;;;;;;;79.38;40.17;;;;;;;6.79;81.94;101542.16;4952644;28;20071;-76
2021/11/16 02:41:31;;;;;;;80.20;41.80;;;;;;;6.79;81.92;101536.91;4959569;28;20486;-76
2021/11/16 02:43:59;;;;;;;79.85;41.20;;;;;;;6.80;81.69;101538.66;4952111;28;20047;-76
2021/11/16 02:46:24;;;;;;;77.80;39.22;;;;;;;6.83;81.89;101548.34;4952522;28;20118;-76
2021/11/16 02:48:50;;;;;;;74.35;38.20;;;;;;;6.85;82.11;101544.91;4951591;28;20119;-76
2021/11/16 02:51:15;;;;;;;78.78;40.25;;;;;;;6.83;82.07;101541.34;4952470;28;20047;-76
2021/11/16 02:53:41;;;;;;;79.18;38.95;;;;;;;6.82;81.78;101543.97;4953621;28;20043;-76
2021/11/16 02:56:08;;;;;;;82.00;42.55;;;;;;;6.83;81.70;101543.09;4954956;29;20098;-76
2021/11/16 02:58:34;;;;;;;77.97;38.60;;;;;;;6.83;81.48;101543.97;4954677;28;20110;-76
2021/11/16 03:01:04;;;;;;;80.70;38.70;;;;;;;6.79;81.76;101542.16;4967747;28;20447;-76
2021/11/16 03:03:31;;;;;;;78.53;37.53;;;;;;;6.69;81.53;101538.38;4954177;28;20042;-76
2021/11/16 03:05:56;;;;;;;74.70;39.83;;;;;;;6.68;81.75;101540.94;4961807;28;20050;-75
2021/11/16 03:08:27;;;;;;;82.60;40.80;;;;;;;6.71;81.72;101538.44;4957468;28;20474;-75
2021/11/16 03:10:56;;;;;;;76.13;40.95;;;;;;;6.74;81.92;101531.53;4951709;28;20036;-75
2021/11/16 03:13:23;;;;;;;73.20;38.90;;;;;;;6.77;82.12;101533.34;4959095;28;20031;-75
2021/11/16 03:15:48;;;;;;;74.65;38.05;;;;;;;6.75;81.79;101535.91;4957700;28;20043;-76
2021/11/16 03:18:15;;;;;;;79.20;40.55;;;;;;;6.77;81.64;101538.59;4955343;28;20458;-75
2021/11/16 03:20:41;;;;;;;81.03;41.92;;;;;;;6.73;81.84;101531.47;4955603;28;20371;-75
2021/11/16 03:25:37;;;;;;;78.18;39.50;;;;;;;6.71;81.52;101546.31;4955526;28;20054;-75
2021/11/16 03:28:07;;;;;;;76.78;39.63;;;;;;;6.72;81.88;101551.56;4955551;28;20031;-75
2021/11/16 03:30:33;;;;;;;83.95;40.92;;;;;;;6.68;81.79;101540.94;4955464;28;20050;-75
2021/11/16 03:32:59;;;;;;;84.50;41.38;;;;;;;6.56;81.55;101542.41;4955181;28;20045;-75
2021/11/16 03:35:24;;;;;;;79.57;39.28;;;;;;;6.49;81.80;101543.09;4955427;28;20035;-76
2021/11/16 03:37:54;;;;;;;87.47;41.88;;;;;;;6.47;82.01;101539.56;4955371;28;20387;-75
2021/11/16 03:40:22;;;;;;;78.30;40.78;;;;;;;6.44;81.98;101526.34;4954203;29;20075;-76
2021/11/16 03:42:50;;;;;;;80.93;40.17;;;;;;;6.41;81.56;101531.53;4955001;28;20054;-76
2021/11/16 03:45:17;;;;;;;80.13;40.45;;;;;;;6.41;82.09;101526.28;4955237;28;20046;-76
2021/11/16 03:47:43;;;;;;;82.20;38.90;;;;;;;6.36;81.59;101530.50;4953553;28;20604;-76
2021/11/16 03:50:15;;;;;;;90.90;43.13;;;;;;;6.23;81.57;101549.38;4954161;28;20114;-75
2021/11/16 03:52:42;;;;;;;87.45;41.20;;;;;;;6.13;82.60;101543.88;4959173;28;20042;-75
2021/11/16 03:55:10;;;;;;;77.05;41.08;;;;;;;6.15;82.52;101544.78;4958239;28;20043;-75
2021/11/16 03:57:36;;;;;;;82.35;40.90;;;;;;;6.17;82.64;101537.00;4953863;29;20043;-76
2021/11/16 04:00:08;;;;;;;91.60;45.05;;;;;;;6.12;82.79;101534.22;4954841;28;20426;-76
2021/11/16 04:02:34;;;;;;;;;;;;;;;6.08;82.93;101534.13;4956577;28;20039;-76
2021/11/16 04:04:59;;;;;;;83.32;39.83;;;;;;;6.12;83.00;101521.13;4954552;28;19945;-76
2021/11/16 04:07:24;;;;;;;88.80;41.42;;;;;;;6.18;82.96;101524.75;4953660;28;20181;-76
2021/11/16 04:09:50;;;;;;;83.50;41.17;;;;;;;6.08;82.85;101521.91;4954647;28;20066;-75
2021/11/16 04:12:16;;;;;;;90.05;45.15;;;;;;;6.05;83.04;101524.44;4963341;28;20031;-76
2021/11/16 04:14:42;;;;;;;84.55;40.53;;;;;;;6.04;83.37;101522.66;4969706;28;20043;-76
2021/11/16 04:17:07;;;;;;;79.53;40.35;;;;;;;5.98;83.20;101525.09;4954780;28;20039;-75
2021/11/16 04:19:32;;;;;;;81.13;39.90;;;;;;;5.87;82.61;101524.78;4954441;28;20178;-75
2021/11/16 04:21:58;;;;;;;87.50;40.60;;;;;;;5.71;82.82;101527.75;4954358;28;20075;-75
2021/11/16 04:24:23;;;;;;;79.90;38.90;;;;;;;5.65;83.45;101525.84;4959503;28;20047;-75
2021/11/16 04:26:49;;;;;;;86.20;41.78;;;;;;;5.67;83.94;101516.31;4954450;28;20046;-75
2021/11/16 04:29:14;;;;;;;78.47;40.05;;;;;;;5.75;83.95;101513.03;4954451;28;20031;-75
2021/11/16 04:31:39;;;;;;;80.28;39.65;;;;;;;5.85;83.29;101507.22;4954238;28;20398;-75
2021/11/16 04:34:07;;;;;;;78.43;38.85;;;;;;;5.93;83.62;101503.09;4953951;28;20039;-75
2021/11/16 04:36:34;;;;;;;83.97;39.03;;;;;;;6.02;83.59;101505.09;4953710;28;20453;-75
2021/11/16 04:39:00;;;;;;;70.40;36.42;;;;;;;6.07;83.37;101486.03;4958897;28;20126;-76
2021/11/16 04:41:25;;;;;;;64.68;35.90;;;;;;;6.17;83.22;101487.19;4959465;29;20481;-75
2021/11/16 04:43:51;;;;;;;68.40;35.92;;;;;;;6.26;82.67;101486.53;4957823;28;20038;-75
2021/11/16 04:46:20;;;;;;;69.57;36.40;;;;;;;6.34;82.61;101474.50;4954359;28;20169;-75
2021/11/16 04:51:48;;;;;;;62.38;34.30;;;;;;;6.45;82.40;101488.81;4957953;28;20026;-76
2021/11/16 04:59:49;;;;;;;61.17;35.63;;;;;;;6.49;82.28;101477.53;4955387;28;20045;-76
2021/11/16 05:05:00;;;;;;;57.75;31.58;;;;;;;6.49;82.26;101463.53;4951384;29;20046;-75
2021/11/16 05:07:30;;;;;;;61.95;33.85;;;;;;;6.44;82.04;101462.53;4953703;28;20035;-76
2021/11/16 05:09:59;;;;;;;62.45;35.05;;;;;;;6.41;81.98;101459.84;4954981;28;20031;-76
2021/11/16 05:12:27;;;;;;;60.58;32.92;;;;;;;6.40;81.94;101455.44;4954015;28;20039;-76
2021/11/16 05:14:54;;;;;;;63.70;32.45;;;;;;;6.36;82.28;101452.72;4949600;28;20094;-76
2021/11/16 05:17:20;;;;;;;62.05;33.15;;;;;;;6.37;82.56;101464.13;4956125;28;20118;-77
2021/11/16 05:19:45;;;;;;;57.00;31.38;;;;;;;6.34;82.48;101459.69;4953902;28;20630;-76
2021/11/16 05:22:11;;;;;;;51.90;32.35;;;;;;;6.36;82.64;101457.97;4952509;28;20113;-76
2021/11/16 05:24:37;;;;;;;60.53;31.73;;;;;;;6.34;82.08;101469.25;4950455;28;20035;-76
2021/11/16 05:27:03;;;;;;;58.88;32.30;;;;;;;6.23;81.98;101473.34;4959535;28;20054;-76
2021/11/16 05:29:29;;;;;;;58.88;33.05;;;;;;;6.10;82.43;101469.50;4960224;28;20393;-76
2021/11/16 05:31:54;;;;;;;56.88;32.17;;;;;;;6.05;82.95;101461.53;4955428;28;20117;-76
2021/11/16 05:34:19;;;;;;;58.28;31.98;;;;;;;6.01;83.07;101464.91;4956209;28;20405;-76
2021/11/16 05:36:45;;;;;;;59.70;34.03;;;;;;;6.01;83.50;101454.44;4956316;28;20035;-77
2021/11/16 05:39:11;;;;;;;57.33;33.25;;;;;;;6.05;83.83;101461.53;4958390;28;20101;-76
2021/11/16 05:41:37;;;;;;;56.08;32.30;;;;;;;6.18;83.65;101454.00;4954748;28;20035;-76
2021/11/16 05:44:03;;;;;;;66.07;34.67;;;;;;;6.29;84.03;101452.56;4952880;28;20043;-75
2021/11/16 05:46:29;;;;;;;63.10;34.78;;;;;;;6.46;83.69;101455.59;4953162;28;20039;-76
2021/11/16 05:48:56;;;;;;;55.10;31.48;;;;;;;6.59;83.47;101449.81;4952942;28;20375;-76
2021/11/16 05:51:23;;;;;;;57.67;32.95;;;;;;;6.65;83.21;101465.69;4955337;28;20039;-77
2021/11/16 05:53:57;;;;;;;60.10;35.60;;;;;;;6.75;83.05;101451.06;4951039;28;20043;-76
2021/11/16 05:56:25;;;;;;;62.78;35.72;;;;;;;6.81;83.02;101461.69;4961423;28;20039;-76
2021/11/16 05:58:55;;;;;;;55.92;32.70;;;;;;;6.91;82.23;101457.56;4953241;28;20035;-75
2021/11/16 06:01:22;;;;;;;65.43;35.28;;;;;;;6.99;82.06;101461.25;4952953;28;20409;-76
2021/11/16 06:03:52;;;;;;;70.65;36.42;;;;;;;7.07;81.52;101458.81;4952161;28;20039;-76
2021/11/16 06:06:22;;;;;;;62.15;34.13;;;;;;;7.11;81.50;101455.41;4952058;29;20031;-76
2021/11/16 06:08:48;;;;;;;64.85;35.42;;;;;;;7.05;81.21;101456.16;4951941;29;20031;-76
2021/11/16 06:11:18;;;;;;;62.35;34.05;;;;;;;7.08;81.14;101458.84;4951597;29;20122;-76
2021/11/16 06:13:48;;;;;;;60.28;33.53;;;;;;;7.14;81.21;101460.72;4952597;28;20135;-76
2021/11/16 06:16:14;;;;;;;60.70;32.30;;;;;;;7.21;80.92;101462.66;4952746;28;20450;-76
2021/11/16 06:18:40;;;;;;;60.40;33.33;;;;;;;7.24;80.82;101457.47;4952782;28;20048;-76
2021/11/16 06:21:06;;;;;;;64.78;34.85;;;;;;;7.28;80.64;101458.41;4952746;28;20046;-76
2021/11/16 06:23:33;;;;;;;69.28;36.63;;;;;;;7.28;80.45;101448.78;4951321;29;20047;-76
2021/11/16 06:25:59;;;;;;;70.35;38.90;;;;;;;7.31;80.24;101464.63;4952812;28;20031;-76
2021/11/16 06:28:25;;;;;;;70.18;38.40;;;;;;;7.32;80.37;101465.50;4953493;28;20083;-76
2021/11/16 06:30:50;;;;;;;68.95;35.38;;;;;;;7.32;80.52;101460.25;4958744;28;20043;-75
2021/11/16 06:33:20;;;;;;;78.18;37.30;;;;;;;7.34;80.06;101471.69;4956074;29;20094;-76
2021/11/16 06:35:46;;;;;;;66.88;36.70;;;;;;;7.35;80.17;101470.84;4956361;28;20075;-76
2021/11/16 06:38:11;;;;;;;73.65;37.53;;;;;;;7.37;79.82;101469.13;4947074;28;20123;-76
2021/11/16 06:40:37;;;;;;;80.85;41.53;;;;;;;7.38;79.88;101466.50;4962821;28;20445;-76
2021/11/16 06:43:02;;;;;;;70.65;37.10;;;;;;;7.41;79.61;101468.31;4956438;28;20469;-76
2021/11/16 06:45:27;;;;;;;66.90;36.08;;;;;;;7.43;79.70;101462.25;4953546;28;20122;-75
2021/11/16 06:47:53;;;;;;;62.95;33.97;;;;;;;7.45;79.75;101467.56;4958900;28;20098;-76
2021/11/16 06:50:18;;;;;;;72.85;37.97;;;;;;;7.47;79.41;101464.09;4960246;28;20031;-76
2021/11/16 06:52:45;;;;;;;68.00;36.30;;;;;;;7.50;79.36;101462.41;4955673;28;20039;-76
2021/11/16 06:55:10;;;;;;;68.85;36.70;;;;;;;7.44;79.49;101461.41;4954270;28;20057;-76
2021/11/16 06:57:36;;;;;;;63.63;34.28;;;;;;;7.44;79.68;101464.03;4956179;28;20035;-76
2021/11/16 07:00:06;;;;;;;76.93;39.95;;;;;;;7.51;79.75;101458.91;4956248;28;20175;-76
2021/11/16 07:02:31;;;;;;;83.97;44.03;;;;;;;7.56;79.68;101460.78;4954711;28;20038;-76
2021/11/16 07:04:56;;;;;;;100.70;49.88;;;;;;;7.60;79.92;101452.13;4956181;28;20094;-76
2021/11/16 07:07:22;;;;;;;99.60;47.95;;;;;;;7.66;80.26;101468.00;4949718;28;20043;-76
2021/11/16 07:09:47;;;;;;;99.28;51.47;;;;;;;7.71;79.91;101460.22;4956571;28;20030;-76
2021/11/16 07:12:13;;;;;;;85.60;43.85;;;;;;;7.76;79.95;101465.56;4956062;28;20047;-76
2021/11/16 07:14:40;;;;;;;72.97;38.58;;;;;;;7.74;79.26;101462.03;4955339;28;20053;-76
2021/11/16 07:17:09;;;;;;;64.85;34.80;;;;;;;7.67;79.07;101463.63;4954327;28;20110;-76
2021/11/16 07:19:34;;;;;;;61.00;33.13;;;;;;;7.70;79.07;101466.31;4955634;28;20058;-76
2021/11/16 07:22:04;;;;;;;60.20;31.85;;;;;;;7.70;78.76;101461.06;4955518;28;20521;-75
2021/11/16 07:24:30;;;;;;;64.13;34.67;;;;;;;7.67;78.78;101459.25;4955302;28;20470;-76
2021/11/16 07:27:05;;;;;;;62.65;32.83;;;;;;;7.60;78.96;101460.00;4955481;28;20039;-76
2021/11/16 07:29:34;;;;;;;59.30;32.95;;;;;;;7.65;79.27;101465.31;4955438;28;20032;-76
2021/11/16 07:32:02;;;;;;;61.88;33.72;;;;;;;7.71;79.19;101462.84;4955355;28;20454;-76
2021/11/16 07:34:30;;;;;;;57.55;32.17;;;;;;;7.78;79.08;101466.47;4953880;29;20058;-75
2021/11/16 07:37:01;;;;;;;62.30;34.17;;;;;;;7.81;78.61;101459.56;4954938;28;20102;-75
2021/11/16 07:39:27;;;;;;;55.35;31.38;;;;;;;7.86;78.68;101465.78;4958543;28;20125;-75
2021/11/16 07:42:06;;;;;;;64.90;34.58;;;;;;;7.85;77.88;101469.25;4958111;28;20066;-76
2021/11/16 07:44:31;;;;;;;55.38;33.08;;;;;;;7.83;78.20;101465.72;4956168;28;20038;-76
2021/11/16 07:46:57;;;;;;;60.72;33.25;;;;;;;7.90;78.28;101462.34;4956893;28;20097;-76
2021/11/16 07:49:23;;;;;;;63.85;35.53;;;;;;;7.97;78.25;101462.50;4963582;28;20236;-75
2021/11/16 07:51:50;;;;;;;59.53;34.85;;;;;;;7.98;77.80;101459.88;4954952;28;20438;-75
2021/11/16 07:54:28;;;;;;;55.13;31.45;;;;;;;8.01;77.57;101467.81;4959666;28;20039;-76
2021/11/16 07:57:01;;;;;;;56.90;31.67;;;;;;;8.04;77.77;101457.38;4959130;28;20078;-75
2021/11/16 07:59:26;;;;;;;59.30;32.20;;;;;;;8.04;78.03;101466.97;4955107;28;20507;-75
2021/11/16 08:01:59;;;;;;;59.65;32.83;;;;;;;8.08;77.43;101458.31;4954835;28;20046;-75
2021/11/16 08:04:32;;;;;;;;;;;;;;;8.06;77.92;101460.03;4951423;29;20450;-75
2021/11/16 08:09:57;;;;;;;67.32;35.70;;;;;;;8.21;77.35;101447.16;4946194;28;21405;-75
2021/11/16 08:15:07;;;;;;;72.13;38.72;;;;;;;8.31;77.30;101450.84;4950107;28;20570;-75
2021/11/16 08:17:34;;;;;;;62.75;34.42;;;;;;;8.38;77.34;101446.56;4952504;28;20505;-75
2021/11/16 08:20:05;;;;;;;61.90;33.60;;;;;;;8.46;76.62;101442.34;4955600;28;20027;-75
2021/11/16 08:22:30;;;;;;;63.15;34.80;;;;;;;8.51;76.73;101440.69;4956479;28;20401;-75
2021/11/16 08:24:56;;;;;;;75.30;39.67;;;;;;;8.52;76.72;101442.47;4953559;28;20038;-75
2021/11/16 08:27:35;;;;;;;87.55;43.88;;;;;;;8.67;77.12;101442.72;4954523;28;20043;-75
2021/11/16 08:30:11;;;;;;;86.93;44.05;;;;;;;8.84;76.66;101444.75;4957687;28;20398;-76
2021/11/16 08:32:39;;;;;;;64.18;34.75;;;;;;;8.81;75.77;101442.06;4954547;28;20398;-76
2021/11/16 08:35:16;;;;;;;60.50;34.30;;;;;;;8.93;75.67;101439.59;4954212;28;20047;-75
2021/11/16 08:37:43;;;;;;;64.75;35.35;;;;;;;9.08;76.17;101438.94;4954264;28;20098;-75
2021/11/16 08:40:10;;;;;;;69.75;35.80;;;;;;;9.19;75.68;101435.59;4952834;29;20412;-75
2021/11/16 08:42:39;;;;;;;62.30;35.30;;;;;;;9.24;74.67;101433.03;4953362;28;20532;-76
2021/11/16 08:45:11;;;;;;;60.95;34.70;;;;;;;9.27;74.87;101430.44;4954104;28;20510;-75
2021/11/16 08:47:43;;;;;;;61.58;35.15;;;;;;;9.33;74.95;101430.53;4949375;28;20043;-75
2021/11/16 08:50:32;;;;;;;65.43;35.08;;;;;;;9.32;74.91;101435.78;4953104;28;20035;-75
2021/11/16 08:53:00;;;;;;;59.30;32.20;;;;;;;9.39;74.80;101429.72;4953373;28;20047;-75
2021/11/16 08:55:29;;;;;;;62.58;35.28;;;;;;;9.40;74.58;101428.84;4953863;28;20032;-75
2021/11/16 08:57:57;;;;;;;61.53;33.50;;;;;;;9.37;74.54;101434.97;4953433;28;20110;-75
2021/11/16 09:00:27;;;;;;;57.33;32.83;;;;;;;9.41;74.08;101428.00;4953642;28;20046;-75
2021/11/16 09:03:07;;;;;;;60.63;32.80;;;;;;;9.37;73.74;101426.19;4952130;28;20529;-75
2021/11/16 09:05:36;;;;;;;56.38;33.00;;;;;;;9.44;74.06;101430.66;4953649;28;20049;-75
2021/11/16 09:08:02;;;;;;;60.42;33.28;;;;;;;9.55;74.25;101425.53;4953711;28;20038;-75
2021/11/16 09:10:49;;;;;;;55.47;32.33;;;;;;;9.61;72.94;101423.84;4953608;28;20074;-75
2021/11/16 09:13:18;;;;;;;56.20;33.40;;;;;;;9.53;73.41;101420.22;4954823;28;20324;-75
2021/11/16 09:15:46;;;;;;;63.15;35.97;;;;;;;9.60;74.08;101414.19;4960765;28;20101;-75
2021/11/16 09:18:15;;;;;;;84.28;43.20;;;;;;;9.69;73.94;101405.47;4958168;28;20395;-75
2021/11/16 09:20:44;;;;;;;69.72;38.85;;;;;;;9.73;73.90;101409.06;4957492;28;20034;-75
2021/11/16 09:23:19;;;;;;;65.97;36.88;;;;;;;9.76;74.07;101406.44;4956492;28;20142;-75
2021/11/16 09:25:44;;;;;;;57.10;32.05;;;;;;;9.87;73.50;101410.06;4953364;28;20142;-75
2021/11/16 09:28:34;;;;;;;57.15;34.55;;;;;;;9.96;73.13;101397.00;4953356;29;20677;-75
2021/11/16 09:31:00;;;;;;;51.42;30.60;;;;;;;10.02;73.06;101399.69;4934780;29;20074;-75
2021/11/16 09:33:25;;;;;;;59.58;32.75;;;;;;;10.13;72.61;101399.78;4952955;28;20050;-75
2021/11/16 09:36:00;;;;;;;51.47;30.63;;;;;;;10.19;72.52;101389.31;4952482;29;20031;-75
2021/11/16 09:38:44;;;;;;;51.55;29.95;;;;;;;10.15;71.86;101392.78;4950923;28;20035;-76
2021/11/16 09:41:13;;;;;;;52.13;30.77;;;;;;;10.18;71.88;101391.94;4952365;28;20038;-75
2021/11/16 09:43:39;;;;;;;59.13;33.90;;;;;;;10.26;72.31;101384.97;4951214;28;20043;-75
2021/11/16 09:46:06;;;;;;;57.10;34.33;;;;;;;10.34;71.85;101378.03;4955743;28;20079;-75
2021/11/16 09:48:33;;;;;;;55.50;32.60;;;;;;;10.41;71.51;101376.34;4948647;28;20023;-76
2021/11/16 09:51:11;;;;;;;50.58;28.98;;;;;;;10.44;70.89;101369.31;4953383;28;20039;-76
2021/11/16 09:53:37;;;;;;;52.92;30.42;;;;;;;10.51;71.31;101370.25;4955257;28;20470;-76
2021/11/16 09:56:02;;;;;;;47.58;29.02;;;;;;;10.50;71.68;101374.63;4955700;28;20035;-75
2021/11/16 09:58:33;;;;;;;48.35;28.75;;;;;;;10.56;71.36;101365.91;4953001;28;20534;-75
2021/11/16 10:00:58;;;;;;;46.17;28.40;;;;;;;10.60;71.37;101361.53;4951816;29;20035;-75
2021/11/16 10:03:24;;;;;;;44.20;27.13;;;;;;;10.66;70.92;101356.28;4953551;28;20061;-75
2021/11/16 10:05:54;;;;;;;52.15;30.35;;;;;;;10.70;70.59;101353.66;4955786;29;20093;-75
2021/11/16 10:08:20;;;;;;;46.85;28.38;;;;;;;10.75;70.63;101356.34;4956942;28;20371;-75
2021/11/16 10:10:49;;;;;;;50.47;30.20;;;;;;;10.81;70.34;101351.09;4956917;28;20031;-75
2021/11/16 10:13:18;;;;;;;49.53;30.08;;;;;;;10.93;70.56;101353.81;4955300;29;20046;-75
2021/11/16 10:15:47;;;;;;;44.08;27.48;;;;;;;10.92;70.07;101348.50;4963714;28;20049;-75
2021/11/16 10:18:15;;;;;;;51.53;31.75;;;;;;;10.93;70.08;101353.81;4956780;28;20046;-76
2021/11/16 10:20:45;;;;;;;48.63;31.98;;;;;;;11.01;69.70;101350.34;4956596;28;20039;-75
2021/11/16 10:23:14;;;;;;;47.30;28.60;;;;;;;11.02;69.63;101352.09;4956427;28;20114;-75
2021/11/16 10:25:50;;;;;;;46.75;28.42;;;;;;;11.06;69.24;101349.47;4956474;28;20234;-75
2021/11/16 10:28:17;;;;;;;49.67;31.92;;;;;;;11.12;69.59;101351.25;4959092;28;20046;-75
2021/11/16 10:30:45;;;;;;;49.20;29.05;;;;;;;11.18;69.71;101349.50;4956062;28;20110;-75
2021/11/16 10:33:13;;;;;;;48.22;30.27;;;;;;;11.15;69.09;101348.63;4960992;28;20708;-76
2021/11/16 10:35:54;;;;;;;62.10;37.00;;;;;;;11.13;69.61;101351.28;4971715;28;20047;-75
2021/11/16 10:38:24;;;;;;;60.03;35.58;;;;;;;11.14;69.61;101345.13;4947560;29;20130;-75
2021/11/16 10:40:51;;;;;;;71.13;41.38;;;;;;;11.10;69.49;101342.44;4956586;28;20073;-75
2021/11/16 10:43:17;;;;;;;71.28;41.92;;;;;;;11.13;69.60;101337.16;4956030;28;20478;-74
2021/11/16 10:45:46;;;;;;;81.43;42.78;;;;;;;11.26;69.82;101333.69;4956328;28;20086;-75
2021/11/16 10:48:14;;;;;;;53.45;33.10;;;;;;;11.37;69.03;101332.00;4956260;28;20043;-75
2021/11/16 10:50:42;;;;;;;46.67;30.50;;;;;;;11.38;69.25;101333.75;4955866;28;20393;-75
2021/11/16 10:53:12;;;;;;;43.63;28.15;;;;;;;11.36;68.56;101321.41;4948840;28;20083;-75
2021/11/16 10:55:42;;;;;;;44.13;28.00;;;;;;;11.38;68.56;101314.38;4955392;28;20434;-75
2021/11/16 10:58:10;;;;;;;37.85;24.17;;;;;;;11.45;68.30;101316.16;4957355;28;20066;-76
2021/11/16 11:00:43;;;;;;;41.03;26.45;;;;;;;11.45;67.83;101316.16;4954028;28;20039;-75
2021/11/16 11:03:22;;;;;;;38.00;25.08;;;;;;;11.50;67.66;101303.84;4960369;28;20042;-75
2021/11/16 11:05:59;;;;;;;40.13;27.48;;;;;;;11.43;68.17;101306.47;4962877;28;20031;-75
2021/11/16 11:08:32;;;;;;;40.75;27.42;;;;;;;11.42;68.28;101300.28;4973137;28;20127;-75
2021/11/16 11:10:57;;;;;;;41.95;28.33;;;;;;;11.44;68.78;101297.66;4957795;28;20035;-76
2021/11/16 11:13:27;;;;;;;39.50;26.63;;;;;;;11.38;67.99;101295.88;4956789;28;20027;-75
2021/11/16 11:15:53;;;;;;;37.33;24.92;;;;;;;11.42;68.12;101289.69;4955530;28;20452;-74
2021/11/16 11:18:37;;;;;;;40.42;25.70;;;;;;;11.30;67.33;101295.84;4958332;28;20031;-75
2021/11/16 11:21:10;;;;;;;37.13;24.77;;;;;;;11.33;68.16;101293.22;4958511;28;20039;-75
2021/11/16 11:23:43;;;;;;;35.60;23.60;;;;;;;11.47;67.53;101287.94;4954030;28;20035;-74
2021/11/16 11:26:29;;;;;;;35.72;23.95;;;;;;;11.44;67.25;101287.06;4951557;29;20409;-75
2021/11/16 11:29:14;;;;;;;34.05;23.55;;;;;;;11.58;67.37;101280.03;4955332;28;20035;-76
2021/11/16 11:31:44;;;;;;;32.78;23.25;;;;;;;11.67;67.30;101282.72;4952148;29;20073;-75
2021/11/16 11:34:12;;;;;;;30.95;22.88;;;;;;;11.78;67.14;101265.09;4955041;28;20043;-75
2021/11/16 11:36:38;;;;;;;33.97;23.58;;;;;;;11.86;66.55;101267.75;4955352;28;20030;-74
2021/11/16 11:39:33;;;;;;;30.50;22.48;;;;;;;11.87;65.57;101271.28;4955178;28;20054;-74